sensor_id;sensor_type;location;lat;lon;timestamp;pressure;altitude;pressure_sealevel;temperature;humidity
85140;BME280;75501;52.586;13.284;2024-03-29T00:02:16;99333.63;;;9.23;61.38
85140;BME280;75501;52.586;13.284;2024-03-29T00:04:44;99334.88;;;9.25;61.70
85140;BME280;75501;52.586;13.284;2024-03-29T00:07:10;99347.19;;;9.23;61.92
85140;BME280;75501;52.586;13.284;2024-03-29T00:09:36;99357.69;;;9.33;61.63
85140;BME280;75501;52.586;13.284;2024-03-29T00:12:02;99375.28;;;9.27;63.54
85140;BME280;75501;52.586;13.284;2024-03-29T00:14:29;99388.47;;;8.90;68.09
85140;BME280;75501;52.586;13.284;2024-03-29T00:16:57;99366.38;;;8.45;71.54
85140;BME280;75501;52.586;13.284;2024-03-29T00:19:23;99363.34;;;8.30;75.71
85140;BME280;75501;52.586;13.284;2024-03-29T00:21:50;99365.59;;;8.45;73.48
85140;BME280;75501;52.586;13.284;2024-03-29T00:24:16;99370.19;;;8.44;71.38
85140;BME280;75501;52.586;13.284;2024-03-29T00:26:42;99371.34;;;8.35;71.40
85140;BME280;75501;52.586;13.284;2024-03-29T00:29:09;99376.91;;;8.30;70.40
85140;BME280;75501;52.586;13.284;2024-03-29T00:31:35;99375.47;;;8.32;71.01
85140;BME280;75501;52.586;13.284;2024-03-29T00:34:01;99373.88;;;8.31;70.75
85140;BME280;75501;52.586;13.284;2024-03-29T00:36:27;99370.53;;;8.34;69.74
85140;BME280;75501;52.586;13.284;2024-03-29T00:38:55;99376.41;;;8.36;68.86
85140;BME280;75501;52.586;13.284;2024-03-29T00:41:21;99381.22;;;8.39;69.01
85140;BME280;75501;52.586;13.284;2024-03-29T00:43:47;99384.56;;;8.45;67.39
85140;BME280;75501;52.586;13.284;2024-03-29T00:46:13;99390.78;;;8.45;67.79
85140;BME280;75501;52.586;13.284;2024-03-29T00:48:39;99394.44;;;8.49;67.20
85140;BME280;75501;52.586;13.284;2024-03-29T00:51:06;99403.03;;;8.52;67.27
85140;BME280;75501;52.586;13.284;2024-03-29T00:53:32;99402.91;;;8.57;67.19
85140;BME280;75501;52.586;13.284;2024-03-29T00:55:59;99400.19;;;8.57;66.65
85140;BME280;75501;52.586;13.284;2024-03-29T00:58:25;99394.13;;;8.60;65.97
85140;BME280;75501;52.586;13.284;2024-03-29T01:00:51;99391.09;;;8.53;68.38
85140;BME280;75501;52.586;13.284;2024-03-29T01:03:17;99391.41;;;8.51;68.44
85140;BME280;75501;52.586;13.284;2024-03-29T01:05:44;99384.88;;;8.43;69.32
85140;BME280;75501;52.586;13.284;2024-03-29T01:08:10;99386.66;;;8.39;68.10
85140;BME280;75501;52.586;13.284;2024-03-29T01:10:36;99396.19;;;8.37;68.42
85140;BME280;75501;52.586;13.284;2024-03-29T01:13:04;99398.22;;;8.23;68.62
85140;BME280;75501;52.586;13.284;2024-03-29T01:15:30;99389.28;;;8.22;69.97
85140;BME280;75501;52.586;13.284;2024-03-29T01:17:56;99393.16;;;8.30;70.20
85140;BME280;75501;52.586;13.284;2024-03-29T01:20:22;99389.47;;;8.17;69.88
85140;BME280;75501;52.586;13.284;2024-03-29T01:22:48;99400.78;;;8.19;69.57
85140;BME280;75501;52.586;13.284;2024-03-29T01:25:14;99394.25;;;8.20;69.64
85140;BME280;75501;52.586;13.284;2024-03-29T01:27:41;99398.06;;;8.11;70.42
85140;BME280;75501;52.586;13.284;2024-03-29T01:30:09;99391.53;;;8.03;71.39
85140;BME280;75501;52.586;13.284;2024-03-29T01:32:36;99400.44;;;7.95;70.87
85140;BME280;75501;52.586;13.284;2024-03-29T01:35:02;99407.59;;;7.99;71.19
85140;BME280;75501;52.586;13.284;2024-03-29T01:37:29;99404.25;;;7.94;70.94
85140;BME280;75501;52.586;13.284;2024-03-29T01:39:55;99402.00;;;7.87;71.39
85140;BME280;75501;52.586;13.284;2024-03-29T01:42:21;99400.88;;;7.80;72.10
85140;BME280;75501;52.586;13.284;2024-03-29T01:44:47;99406.44;;;7.75;72.55
85140;BME280;75501;52.586;13.284;2024-03-29T01:47:17;99408.34;;;7.74;71.90
85140;BME280;75501;52.586;13.284;2024-03-29T01:49:45;99411.50;;;7.68;72.19
85140;BME280;75501;52.586;13.284;2024-03-29T01:52:14;99405.47;;;7.71;72.06
85140;BME280;75501;52.586;13.284;2024-03-29T01:54:44;99408.47;;;7.69;72.25
85140;BME280;75501;52.586;13.284;2024-03-29T01:57:13;99409.09;;;7.58;72.50
85140;BME280;75501;52.586;13.284;2024-03-29T01:59:42;99407.78;;;7.55;72.51
85140;BME280;75501;52.586;13.284;2024-03-29T02:02:13;99406.56;;;7.61;72.55
85140;BME280;75501;52.586;13.284;2024-03-29T02:04:42;99408.59;;;7.56;72.34
85140;BME280;75501;52.586;13.284;2024-03-29T02:07:10;99412.75;;;7.62;72.37
85140;BME280;75501;52.586;13.284;2024-03-29T02:09:37;99409.34;;;7.47;72.51
85140;BME280;75501;52.586;13.284;2024-03-29T02:12:04;99415.91;;;7.46;72.46
85140;BME280;75501;52.586;13.284;2024-03-29T02:14:31;99422.53;;;7.40;73.39
85140;BME280;75501;52.586;13.284;2024-03-29T02:16:58;99426.19;;;7.36;73.33
85140;BME280;75501;52.586;13.284;2024-03-29T02:19:27;99421.31;;;7.46;72.61
85140;BME280;75501;52.586;13.284;2024-03-29T02:21:56;99422.28;;;7.50;72.54
85140;BME280;75501;52.586;13.284;2024-03-29T02:24:28;99412.41;;;7.46;73.10
85140;BME280;75501;52.586;13.284;2024-03-29T02:26:56;99419.91;;;7.18;73.87
85140;BME280;75501;52.586;13.284;2024-03-29T02:29:23;99415.47;;;7.22;73.79
85140;BME280;75501;52.586;13.284;2024-03-29T02:31:51;99430.09;;;7.21;73.52
85140;BME280;75501;52.586;13.284;2024-03-29T02:34:18;99427.69;;;7.20;74.16
85140;BME280;75501;52.586;13.284;2024-03-29T02:36:45;99420.56;;;7.24;73.73
85140;BME280;75501;52.586;13.284;2024-03-29T02:39:12;99429.47;;;7.24;74.10
85140;BME280;75501;52.586;13.284;2024-03-29T02:41:40;99426.03;;;7.32;73.69
85140;BME280;75501;52.586;13.284;2024-03-29T02:44:07;99431.53;;;7.19;73.74
85140;BME280;75501;52.586;13.284;2024-03-29T02:46:36;99436.13;;;7.18;72.99
85140;BME280;75501;52.586;13.284;2024-03-29T02:49:03;99437.34;;;7.12;73.24
85140;BME280;75501;52.586;13.284;2024-03-29T02:51:29;99432.56;;;7.09;73.53
85140;BME280;75501;52.586;13.284;2024-03-29T02:53:56;99433.81;;;7.03;74.13
85140;BME280;75501;52.586;13.284;2024-03-29T02:56:22;99428.59;;;7.07;73.67
85140;BME280;75501;52.586;13.284;2024-03-29T02:58:51;99430.38;;;7.11;73.30
85140;BME280;75501;52.586;13.284;2024-03-29T03:01:17;99431.91;;;7.04;73.90
85140;BME280;75501;52.586;13.284;2024-03-29T03:03:44;99432.03;;;6.98;73.89
85140;BME280;75501;52.586;13.284;2024-03-29T03:06:10;99439.34;;;6.98;73.94
85140;BME280;75501;52.586;13.284;2024-03-29T03:08:38;99446.97;;;6.96;73.69
85140;BME280;75501;52.586;13.284;2024-03-29T03:11:28;99451.41;;;6.92;73.99
85140;BME280;75501;52.586;13.284;2024-03-29T03:13:56;99448.22;;;6.90;73.93
85140;BME280;75501;52.586;13.284;2024-03-29T03:16:23;99452.31;;;6.87;73.43
85140;BME280;75501;52.586;13.284;2024-03-29T03:18:50;99463.00;;;6.92;73.66
85140;BME280;75501;52.586;13.284;2024-03-29T03:21:16;99457.13;;;6.90;73.21
85140;BME280;75501;52.586;13.284;2024-03-29T03:23:44;99455.38;;;6.94;73.05
85140;BME280;75501;52.586;13.284;2024-03-29T03:26:10;99458.59;;;6.96;73.34
85140;BME280;75501;52.586;13.284;2024-03-29T03:28:37;99466.44;;;6.84;73.33
85140;BME280;75501;52.586;13.284;2024-03-29T03:31:05;99465.78;;;6.79;73.36
85140;BME280;75501;52.586;13.284;2024-03-29T03:33:32;99479.28;;;6.79;73.66
85140;BME280;75501;52.586;13.284;2024-03-29T03:36:00;99475.78;;;6.78;72.67
85140;BME280;75501;52.586;13.284;2024-03-29T03:38:27;99477.03;;;6.72;73.23
85140;BME280;75501;52.586;13.284;2024-03-29T03:40:54;99478.94;;;6.72;73.30
85140;BME280;75501;52.586;13.284;2024-03-29T03:43:20;99485.56;;;6.66;73.36
85140;BME280;75501;52.586;13.284;2024-03-29T03:45:47;99487.75;;;6.64;73.20
85140;BME280;75501;52.586;13.284;2024-03-29T03:48:15;99487.88;;;6.59;73.10
85140;BME280;75501;52.586;13.284;2024-03-29T03:50:42;99478.84;;;6.63;72.87
85140;BME280;75501;52.586;13.284;2024-03-29T03:53:08;99477.94;;;6.68;72.76
85140;BME280;75501;52.586;13.284;2024-03-29T03:55:36;99466.66;;;6.66;73.07
85140;BME280;75501;52.586;13.284;2024-03-29T03:58:03;99452.09;;;6.75;72.87
85140;BME280;75501;52.586;13.284;2024-03-29T04:00:30;99453.97;;;6.75;72.75
85140;BME280;75501;52.586;13.284;2024-03-29T04:02:56;99449.91;;;6.64;72.65
85140;BME280;75501;52.586;13.284;2024-03-29T04:05:25;99447.22;;;6.64;72.85
85140;BME280;75501;52.586;13.284;2024-03-29T04:07:52;99453.91;;;6.66;72.61
85140;BME280;75501;52.586;13.284;2024-03-29T04:10:19;99444.03;;;6.62;72.92
85140;BME280;75501;52.586;13.284;2024-03-29T04:12:45;99454.47;;;6.55;73.01
85140;BME280;75501;52.586;13.284;2024-03-29T04:15:12;99458.56;;;6.52;73.03
85140;BME280;75501;52.586;13.284;2024-03-29T04:17:38;99448.38;;;6.49;72.80
85140;BME280;75501;52.586;13.284;2024-03-29T04:20:06;99447.34;;;6.59;73.07
85140;BME280;75501;52.586;13.284;2024-03-29T04:22:34;99451.56;;;6.73;72.13
85140;BME280;75501;52.586;13.284;2024-03-29T04:25:01;99458.41;;;6.71;72.17
85140;BME280;75501;52.586;13.284;2024-03-29T04:27:28;99459.38;;;6.75;71.92
85140;BME280;75501;52.586;13.284;2024-03-29T04:29:55;99447.03;;;6.82;71.82
85140;BME280;75501;52.586;13.284;2024-03-29T04:32:22;99452.50;;;6.69;71.71
85140;BME280;75501;52.586;13.284;2024-03-29T04:34:49;99456.59;;;6.66;72.37
85140;BME280;75501;52.586;13.284;2024-03-29T04:37:17;99455.06;;;6.74;71.77
85140;BME280;75501;52.586;13.284;2024-03-29T04:39:46;99452.50;;;6.69;71.95
85140;BME280;75501;52.586;13.284;2024-03-29T04:42:13;99457.16;;;6.77;71.83
85140;BME280;75501;52.586;13.284;2024-03-29T04:44:40;99447.41;;;6.89;71.06
85140;BME280;75501;52.586;13.284;2024-03-29T04:47:07;99455.25;;;6.77;70.71
85140;BME280;75501;52.586;13.284;2024-03-29T04:49:35;99449.94;;;6.86;70.53
85140;BME280;75501;52.586;13.284;2024-03-29T04:52:03;99445.88;;;6.97;70.29
85140;BME280;75501;52.586;13.284;2024-03-29T04:54:31;99444.34;;;7.05;70.19
85140;BME280;75501;52.586;13.284;2024-03-29T04:57:00;99453.66;;;6.98;69.73
85140;BME280;75501;52.586;13.284;2024-03-29T04:59:31;99447.72;;;6.88;70.41
85140;BME280;75501;52.586;13.284;2024-03-29T05:01:59;99434.56;;;6.95;69.91
85140;BME280;75501;52.586;13.284;2024-03-29T05:04:27;99441.69;;;6.91;69.36
85140;BME280;75501;52.586;13.284;2024-03-29T05:06:55;99440.94;;;6.99;69.53
85140;BME280;75501;52.586;13.284;2024-03-29T05:09:23;99455.09;;;6.96;69.73
85140;BME280;75501;52.586;13.284;2024-03-29T05:11:52;99471.66;;;7.03;68.99
85140;BME280;75501;52.586;13.284;2024-03-29T05:14:21;99465.09;;;6.95;69.03
85140;BME280;75501;52.586;13.284;2024-03-29T05:16:49;99460.84;;;7.03;68.79
85140;BME280;75501;52.586;13.284;2024-03-29T05:19:16;99480.50;;;7.17;68.09
85140;BME280;75501;52.586;13.284;2024-03-29T05:21:44;99478.44;;;7.14;68.58
85140;BME280;75501;52.586;13.284;2024-03-29T05:24:10;99478.09;;;7.38;67.72
85140;BME280;75501;52.586;13.284;2024-03-29T05:26:37;99483.31;;;7.34;66.99
85140;BME280;75501;52.586;13.284;2024-03-29T05:29:04;99485.53;;;7.32;66.82
85140;BME280;75501;52.586;13.284;2024-03-29T05:31:34;99485.19;;;7.56;66.29
85140;BME280;75501;52.586;13.284;2024-03-29T05:34:01;99495.66;;;7.49;66.41
85140;BME280;75501;52.586;13.284;2024-03-29T05:36:28;99492.50;;;7.56;67.20
85140;BME280;75501;52.586;13.284;2024-03-29T05:38:56;99484.53;;;7.90;65.17
85140;BME280;75501;52.586;13.284;2024-03-29T05:41:23;99462.88;;;7.90;65.23
85140;BME280;75501;52.586;13.284;2024-03-29T05:43:50;99450.00;;;8.04;64.83
85140;BME280;75501;52.586;13.284;2024-03-29T05:46:18;99442.25;;;8.28;64.44
85140;BME280;75501;52.586;13.284;2024-03-29T05:48:46;99464.09;;;8.32;63.83
85140;BME280;75501;52.586;13.284;2024-03-29T05:51:13;99465.78;;;8.19;63.30
85140;BME280;75501;52.586;13.284;2024-03-29T05:53:41;99476.97;;;8.18;63.66
85140;BME280;75501;52.586;13.284;2024-03-29T05:56:08;99485.84;;;8.10;64.37
85140;BME280;75501;52.586;13.284;2024-03-29T05:58:35;99476.84;;;8.40;63.78
85140;BME280;75501;52.586;13.284;2024-03-29T06:01:02;99475.28;;;8.56;62.59
85140;BME280;75501;52.586;13.284;2024-03-29T06:03:30;99476.41;;;8.46;63.31
85140;BME280;75501;52.586;13.284;2024-03-29T06:05:58;99470.03;;;8.60;62.18
85140;BME280;75501;52.586;13.284;2024-03-29T06:08:25;99492.47;;;8.34;62.76
85140;BME280;75501;52.586;13.284;2024-03-29T06:10:53;99497.09;;;8.34;63.17
85140;BME280;75501;52.586;13.284;2024-03-29T06:13:20;99494.88;;;8.44;62.81
85140;BME280;75501;52.586;13.284;2024-03-29T06:16:10;99508.47;;;8.70;61.86
85140;BME280;75501;52.586;13.284;2024-03-29T06:18:55;99503.69;;;8.84;60.99
85140;BME280;75501;52.586;13.284;2024-03-29T06:21:23;99509.91;;;8.85;59.90
85140;BME280;75501;52.586;13.284;2024-03-29T06:23:51;99506.53;;;8.79;60.28
85140;BME280;75501;52.586;13.284;2024-03-29T06:26:18;99506.38;;;8.76;61.15
85140;BME280;75501;52.586;13.284;2024-03-29T06:28:46;99515.50;;;8.88;60.31
85140;BME280;75501;52.586;13.284;2024-03-29T06:31:13;99519.16;;;8.92;60.37
85140;BME280;75501;52.586;13.284;2024-03-29T06:33:40;99522.03;;;9.13;59.62
85140;BME280;75501;52.586;13.284;2024-03-29T06:36:07;99522.81;;;9.05;59.42
85140;BME280;75501;52.586;13.284;2024-03-29T06:38:36;99530.59;;;9.41;58.90
85140;BME280;75501;52.586;13.284;2024-03-29T06:41:03;99526.31;;;9.23;59.39
85140;BME280;75501;52.586;13.284;2024-03-29T06:43:30;99530.78;;;9.27;58.33
85140;BME280;75501;52.586;13.284;2024-03-29T06:45:57;99530.25;;;9.42;58.17
85140;BME280;75501;52.586;13.284;2024-03-29T06:48:25;99547.50;;;9.46;58.17
85140;BME280;75501;52.586;13.284;2024-03-29T06:50:52;99544.44;;;9.57;57.38
85140;BME280;75501;52.586;13.284;2024-03-29T06:53:19;99542.75;;;9.90;56.70
85140;BME280;75501;52.586;13.284;2024-03-29T06:55:48;99543.56;;;10.28;55.57
85140;BME280;75501;52.586;13.284;2024-03-29T06:58:15;99550.88;;;10.36;54.97
85140;BME280;75501;52.586;13.284;2024-03-29T07:00:43;99562.88;;;10.65;54.15
85140;BME280;75501;52.586;13.284;2024-03-29T07:03:14;99556.38;;;10.78;53.70
85140;BME280;75501;52.586;13.284;2024-03-29T07:05:42;99546.97;;;10.96;52.69
85140;BME280;75501;52.586;13.284;2024-03-29T07:08:09;99545.19;;;11.00;53.10
85140;BME280;75501;52.586;13.284;2024-03-29T07:10:37;99540.72;;;10.95;52.85
85140;BME280;75501;52.586;13.284;2024-03-29T07:13:06;99543.66;;;11.11;51.93
85140;BME280;75501;52.586;13.284;2024-03-29T07:15:33;99563.44;;;10.49;52.94
85140;BME280;75501;52.586;13.284;2024-03-29T07:18:01;99571.81;;;10.44;54.32
85140;BME280;75501;52.586;13.284;2024-03-29T07:20:29;99575.00;;;10.67;52.91
85140;BME280;75501;52.586;13.284;2024-03-29T07:22:56;99586.69;;;10.38;53.24
85140;BME280;75501;52.586;13.284;2024-03-29T07:25:24;99590.22;;;10.39;52.97
85140;BME280;75501;52.586;13.284;2024-03-29T07:27:52;99595.63;;;10.47;53.12
85140;BME280;75501;52.586;13.284;2024-03-29T07:30:20;99586.97;;;10.45;53.20
85140;BME280;75501;52.586;13.284;2024-03-29T07:32:47;99576.59;;;10.47;52.97
85140;BME280;75501;52.586;13.284;2024-03-29T07:35:15;99587.09;;;10.78;51.43
85140;BME280;75501;52.586;13.284;2024-03-29T07:37:42;99593.22;;;10.46;52.64
85140;BME280;75501;52.586;13.284;2024-03-29T07:40:13;99603.91;;;10.51;52.26
85140;BME280;75501;52.586;13.284;2024-03-29T07:42:40;99608.94;;;10.40;52.40
85140;BME280;75501;52.586;13.284;2024-03-29T07:45:08;99609.59;;;10.37;52.67
85140;BME280;75501;52.586;13.284;2024-03-29T07:47:37;99608.81;;;10.28;52.88
85140;BME280;75501;52.586;13.284;2024-03-29T07:50:05;99594.50;;;10.48;52.63
85140;BME280;75501;52.586;13.284;2024-03-29T07:52:34;99600.94;;;10.35;52.54
85140;BME280;75501;52.586;13.284;2024-03-29T07:55:01;99601.50;;;10.49;52.62
85140;BME280;75501;52.586;13.284;2024-03-29T07:57:28;99614.88;;;10.63;52.11
85140;BME280;75501;52.586;13.284;2024-03-29T07:59:54;99622.16;;;10.51;52.89
85140;BME280;75501;52.586;13.284;2024-03-29T08:02:21;99624.97;;;10.63;52.73
85140;BME280;75501;52.586;13.284;2024-03-29T08:04:53;99627.59;;;10.51;52.49
85140;BME280;75501;52.586;13.284;2024-03-29T08:07:20;99640.53;;;10.54;53.28
85140;BME280;75501;52.586;13.284;2024-03-29T08:09:48;99636.47;;;10.68;52.89
85140;BME280;75501;52.586;13.284;2024-03-29T08:12:15;99636.22;;;10.53;52.79
85140;BME280;75501;52.586;13.284;2024-03-29T08:14:43;99634.28;;;10.53;53.31
85140;BME280;75501;52.586;13.284;2024-03-29T08:17:12;99637.97;;;10.57;53.54
85140;BME280;75501;52.586;13.284;2024-03-29T08:19:40;99619.41;;;10.59;53.83
85140;BME280;75501;52.586;13.284;2024-03-29T08:22:09;99629.59;;;10.91;54.05
85140;BME280;75501;52.586;13.284;2024-03-29T08:24:37;99641.34;;;10.83;54.02
85140;BME280;75501;52.586;13.284;2024-03-29T08:27:04;99639.03;;;10.65;55.30
85140;BME280;75501;52.586;13.284;2024-03-29T08:29:31;99616.78;;;10.92;57.35
85140;BME280;75501;52.586;13.284;2024-03-29T08:31:59;99620.44;;;11.17;57.80
85140;BME280;75501;52.586;13.284;2024-03-29T08:34:26;99606.97;;;10.99;57.06
85140;BME280;75501;52.586;13.284;2024-03-29T08:36:56;99587.44;;;11.39;58.01
85140;BME280;75501;52.586;13.284;2024-03-29T08:39:25;99587.19;;;11.85;56.51
85140;BME280;75501;52.586;13.284;2024-03-29T08:41:52;99578.75;;;11.90;56.62
85140;BME280;75501;52.586;13.284;2024-03-29T08:44:19;99579.97;;;12.14;55.45
85140;BME280;75501;52.586;13.284;2024-03-29T08:46:46;99590.06;;;12.13;53.84
85140;BME280;75501;52.586;13.284;2024-03-29T08:49:14;99606.22;;;12.30;53.96
85140;BME280;75501;52.586;13.284;2024-03-29T08:51:41;99616.22;;;12.87;52.65
85140;BME280;75501;52.586;13.284;2024-03-29T08:54:08;99611.09;;;13.10;51.12
85140;BME280;75501;52.586;13.284;2024-03-29T08:56:37;99596.84;;;13.72;49.68
85140;BME280;75501;52.586;13.284;2024-03-29T08:59:06;99593.94;;;14.24;48.85
85140;BME280;75501;52.586;13.284;2024-03-29T09:01:36;99599.34;;;14.52;47.11
85140;BME280;75501;52.586;13.284;2024-03-29T09:04:04;99596.13;;;15.00;46.19
85140;BME280;75501;52.586;13.284;2024-03-29T09:06:36;99596.44;;;15.14;45.35
85140;BME280;75501;52.586;13.284;2024-03-29T09:09:04;99596.41;;;15.30;44.09
85140;BME280;75501;52.586;13.284;2024-03-29T09:11:32;99603.16;;;15.52;44.62
85140;BME280;75501;52.586;13.284;2024-03-29T09:14:00;99609.16;;;15.41;44.61
85140;BME280;75501;52.586;13.284;2024-03-29T09:16:28;99610.19;;;15.33;44.22
85140;BME280;75501;52.586;13.284;2024-03-29T09:18:56;99614.72;;;15.26;43.95
85140;BME280;75501;52.586;13.284;2024-03-29T09:21:23;99610.09;;;15.30;44.37
85140;BME280;75501;52.586;13.284;2024-03-29T09:23:51;99614.88;;;15.52;43.78
85140;BME280;75501;52.586;13.284;2024-03-29T09:26:18;99611.44;;;15.55;43.59
85140;BME280;75501;52.586;13.284;2024-03-29T09:28:46;99613.25;;;15.32;44.02
85140;BME280;75501;52.586;13.284;2024-03-29T09:31:14;99613.34;;;15.35;43.84
85140;BME280;75501;52.586;13.284;2024-03-29T09:33:41;99615.25;;;14.81;44.30
85140;BME280;75501;52.586;13.284;2024-03-29T09:36:08;99612.28;;;14.23;45.80
85140;BME280;75501;52.586;13.284;2024-03-29T09:38:36;99620.22;;;14.60;44.86
85140;BME280;75501;52.586;13.284;2024-03-29T09:41:16;99622.88;;;14.09;45.45
85140;BME280;75501;52.586;13.284;2024-03-29T09:43:45;99622.03;;;14.36;45.29
85140;BME280;75501;52.586;13.284;2024-03-29T09:46:15;99628.53;;;14.16;45.42
85140;BME280;75501;52.586;13.284;2024-03-29T09:48:44;99625.28;;;14.58;44.43
85140;BME280;75501;52.586;13.284;2024-03-29T09:51:13;99621.19;;;14.05;45.05
85140;BME280;75501;52.586;13.284;2024-03-29T09:53:41;99621.00;;;14.29;44.95
85140;BME280;75501;52.586;13.284;2024-03-29T09:56:10;99626.41;;;14.57;44.25
85140;BME280;75501;52.586;13.284;2024-03-29T09:58:38;99605.56;;;14.68;43.32
85140;BME280;75501;52.586;13.284;2024-03-29T10:01:06;99618.75;;;14.62;43.27
85140;BME280;75501;52.586;13.284;2024-03-29T10:03:39;99622.13;;;13.96;44.51
85140;BME280;75501;52.586;13.284;2024-03-29T10:06:09;99615.13;;;13.83;45.50
85140;BME280;75501;52.586;13.284;2024-03-29T10:08:39;99613.84;;;13.65;47.11
85140;BME280;75501;52.586;13.284;2024-03-29T10:11:07;99629.25;;;13.58;46.73
85140;BME280;75501;52.586;13.284;2024-03-29T10:13:34;99604.50;;;13.11;47.51
85140;BME280;75501;52.586;13.284;2024-03-29T10:16:03;99606.06;;;13.00;50.16
85140;BME280;75501;52.586;13.284;2024-03-29T10:18:31;99599.38;;;13.09;48.38
85140;BME280;75501;52.586;13.284;2024-03-29T10:21:00;99584.47;;;12.94;50.21
85140;BME280;75501;52.586;13.284;2024-03-29T10:23:28;99591.38;;;13.16;50.17
85140;BME280;75501;52.586;13.284;2024-03-29T10:25:56;99576.91;;;12.64;51.11
85140;BME280;75501;52.586;13.284;2024-03-29T10:28:30;99585.06;;;12.52;53.58
85140;BME280;75501;52.586;13.284;2024-03-29T10:30:59;99586.75;;;12.68;53.40
85140;BME280;75501;52.586;13.284;2024-03-29T10:33:29;99573.25;;;12.11;55.69
85140;BME280;75501;52.586;13.284;2024-03-29T10:35:56;99574.94;;;12.04;57.91
85140;BME280;75501;52.586;13.284;2024-03-29T10:38:26;99576.41;;;12.01;57.08
85140;BME280;75501;52.586;13.284;2024-03-29T10:40:54;99573.91;;;12.08;58.53
85140;BME280;75501;52.586;13.284;2024-03-29T10:43:21;99573.50;;;12.18;57.30
85140;BME280;75501;52.586;13.284;2024-03-29T10:45:50;99575.63;;;12.01;57.31
85140;BME280;75501;52.586;13.284;2024-03-29T10:48:21;99575.44;;;12.42;56.44
85140;BME280;75501;52.586;13.284;2024-03-29T10:50:49;99578.94;;;12.55;56.44
85140;BME280;75501;52.586;13.284;2024-03-29T10:53:17;99584.41;;;12.42;56.50
85140;BME280;75501;52.586;13.284;2024-03-29T10:55:46;99578.16;;;12.18;59.81
85140;BME280;75501;52.586;13.284;2024-03-29T10:58:16;99578.88;;;11.94;61.35
85140;BME280;75501;52.586;13.284;2024-03-29T11:00:53;99574.72;;;12.09;59.93
85140;BME280;75501;52.586;13.284;2024-03-29T11:03:32;99569.84;;;12.14;60.39
85140;BME280;75501;52.586;13.284;2024-03-29T11:06:06;99568.25;;;12.50;58.92
85140;BME280;75501;52.586;13.284;2024-03-29T11:08:34;99566.03;;;12.91;58.77
85140;BME280;75501;52.586;13.284;2024-03-29T11:11:07;99553.13;;;13.28;56.35
85140;BME280;75501;52.586;13.284;2024-03-29T11:13:39;99541.97;;;13.49;55.65
85140;BME280;75501;52.586;13.284;2024-03-29T11:16:12;99538.72;;;13.75;53.96
85140;BME280;75501;52.586;13.284;2024-03-29T11:18:42;99536.63;;;13.68;53.97
85140;BME280;75501;52.586;13.284;2024-03-29T11:21:13;99523.03;;;14.03;52.91
85140;BME280;75501;52.586;13.284;2024-03-29T11:23:48;99523.84;;;14.51;51.68
85140;BME280;75501;52.586;13.284;2024-03-29T11:26:17;99511.41;;;14.91;50.03
85140;BME280;75501;52.586;13.284;2024-03-29T11:28:48;99511.25;;;15.42;48.77
85140;BME280;75501;52.586;13.284;2024-03-29T11:31:16;99507.38;;;15.24;49.62
85140;BME280;75501;52.586;13.284;2024-03-29T11:33:45;99499.25;;;14.70;49.45
85140;BME280;75501;52.586;13.284;2024-03-29T11:36:15;99500.56;;;14.60;50.31
85140;BME280;75501;52.586;13.284;2024-03-29T11:38:45;99505.84;;;14.34;50.80
85140;BME280;75501;52.586;13.284;2024-03-29T11:41:14;99506.81;;;14.41;50.88
85140;BME280;75501;52.586;13.284;2024-03-29T11:43:44;99488.78;;;14.75;50.76
85140;BME280;75501;52.586;13.284;2024-03-29T11:46:12;99493.47;;;15.32;48.07
85140;BME280;75501;52.586;13.284;2024-03-29T11:48:40;99495.13;;;15.37;48.66
85140;BME280;75501;52.586;13.284;2024-03-29T11:51:12;99504.69;;;15.47;47.71
85140;BME280;75501;52.586;13.284;2024-03-29T11:53:41;99506.31;;;15.09;49.02
85140;BME280;75501;52.586;13.284;2024-03-29T11:56:08;99499.75;;;15.33;48.97
85140;BME280;75501;52.586;13.284;2024-03-29T11:58:37;99503.13;;;14.88;51.32
85140;BME280;75501;52.586;13.284;2024-03-29T12:01:06;99502.75;;;14.04;55.19
85140;BME280;75501;52.586;13.284;2024-03-29T12:03:38;99515.09;;;13.82;57.61
85140;BME280;75501;52.586;13.284;2024-03-29T12:06:07;99510.91;;;13.85;57.03
85140;BME280;75501;52.586;13.284;2024-03-29T12:08:37;99514.97;;;13.48;58.79
85140;BME280;75501;52.586;13.284;2024-03-29T12:11:08;99514.22;;;13.19;58.43
85140;BME280;75501;52.586;13.284;2024-03-29T12:13:36;99512.59;;;13.18;58.88
85140;BME280;75501;52.586;13.284;2024-03-29T12:16:06;99508.25;;;13.29;58.39
85140;BME280;75501;52.586;13.284;2024-03-29T12:18:34;99506.78;;;13.48;56.64
85140;BME280;75501;52.586;13.284;2024-03-29T12:21:02;99500.69;;;13.38;56.18
85140;BME280;75501;52.586;13.284;2024-03-29T12:23:31;99504.25;;;13.55;55.81
85140;BME280;75501;52.586;13.284;2024-03-29T12:25:58;99508.75;;;13.63;56.00
85140;BME280;75501;52.586;13.284;2024-03-29T12:28:26;99507.91;;;13.46;56.84
85140;BME280;75501;52.586;13.284;2024-03-29T12:30:54;99501.88;;;13.53;57.38
85140;BME280;75501;52.586;13.284;2024-03-29T12:33:24;99489.81;;;13.70;55.52
85140;BME280;75501;52.586;13.284;2024-03-29T12:35:53;99474.91;;;13.99;54.39
85140;BME280;75501;52.586;13.284;2024-03-29T12:38:24;99471.91;;;14.54;53.00
85140;BME280;75501;52.586;13.284;2024-03-29T12:40:52;99470.69;;;14.71;52.16
85140;BME280;75501;52.586;13.284;2024-03-29T12:43:22;99476.34;;;14.97;50.97
85140;BME280;75501;52.586;13.284;2024-03-29T12:45:51;99465.75;;;15.79;48.92
85140;BME280;75501;52.586;13.284;2024-03-29T12:48:18;99455.63;;;15.61;47.85
85140;BME280;75501;52.586;13.284;2024-03-29T12:50:50;99465.75;;;15.57;47.35
85140;BME280;75501;52.586;13.284;2024-03-29T12:53:17;99473.47;;;15.74;46.92
85140;BME280;75501;52.586;13.284;2024-03-29T12:55:46;99473.41;;;15.48;47.77
85140;BME280;75501;52.586;13.284;2024-03-29T12:58:14;99474.34;;;16.01;46.72
85140;BME280;75501;52.586;13.284;2024-03-29T13:00:44;99472.16;;;15.87;46.59